sensor_id;sensor_type;location;lat;lon;timestamp;P1;durP1;ratioP1;P2;durP2;ratioP2
19406;SDS011;9839;53.364;-1.204;2024-01-30T00:02:10;37.30;;;17.83;;
19406;SDS011;9839;53.364;-1.204;2024-01-30T00:04:35;43.23;;;18.37;;
19406;SDS011;9839;53.364;-1.204;2024-01-30T00:07:01;38.67;;;17.50;;
19406;SDS011;9839;53.364;-1.204;2024-01-30T00:09:26;42.73;;;17.90;;
19406;SDS011;9839;53.364;-1.204;2024-01-30T00:11:51;37.17;;;17.50;;
19406;SDS011;9839;53.364;-1.204;2024-01-30T00:14:17;40.07;;;16.73;;
19406;SDS011;9839;53.364;-1.204;2024-01-30T00:16:42;33.83;;;16.90;;
19406;SDS011;9839;53.364;-1.204;2024-01-30T00:19:07;39.23;;;16.90;;
19406;SDS011;9839;53.364;-1.204;2024-01-30T00:21:33;46.70;;;17.63;;
19406;SDS011;9839;53.364;-1.204;2024-01-30T00:23:58;42.40;;;16.33;;
19406;SDS011;9839;53.364;-1.204;2024-01-30T00:26:24;40.30;;;16.80;;
19406;SDS011;9839;53.364;-1.204;2024-01-30T00:28:49;41.63;;;16.07;;
19406;SDS011;9839;53.364;-1.204;2024-01-30T00:31:14;35.67;;;14.20;;
19406;SDS011;9839;53.364;-1.204;2024-01-30T00:33:40;35.87;;;14.90;;
19406;SDS011;9839;53.364;-1.204;2024-01-30T00:36:06;34.53;;;14.33;;
19406;SDS011;9839;53.364;-1.204;2024-01-30T00:38:32;28.80;;;14.30;;
19406;SDS011;9839;53.364;-1.204;2024-01-30T00:40:58;35.90;;;14.33;;
19406;SDS011;9839;53.364;-1.204;2024-01-30T00:43:23;35.07;;;13.73;;
19406;SDS011;9839;53.364;-1.204;2024-01-30T00:45:49;39.17;;;13.73;;
19406;SDS011;9839;53.364;-1.204;2024-01-30T00:48:17;30.17;;;13.10;;
19406;SDS011;9839;53.364;-1.204;2024-01-30T00:50:42;39.47;;;15.03;;
19406;SDS011;9839;53.364;-1.204;2024-01-30T00:53:07;31.90;;;13.43;;
19406;SDS011;9839;53.364;-1.204;2024-01-30T00:55:33;32.87;;;13.23;;
19406;SDS011;9839;53.364;-1.204;2024-01-30T00:57:58;35.73;;;13.93;;
19406;SDS011;9839;53.364;-1.204;2024-01-30T01:00:23;29.07;;;13.97;;
19406;SDS011;9839;53.364;-1.204;2024-01-30T01:02:53;29.33;;;13.77;;
19406;SDS011;9839;53.364;-1.204;2024-01-30T01:05:19;24.43;;;12.10;;
19406;SDS011;9839;53.364;-1.204;2024-01-30T01:07:44;41.53;;;14.17;;
19406;SDS011;9839;53.364;-1.204;2024-01-30T01:10:12;31.30;;;13.17;;
19406;SDS011;9839;53.364;-1.204;2024-01-30T01:12:38;31.07;;;12.27;;
19406;SDS011;9839;53.364;-1.204;2024-01-30T01:15:04;28.17;;;11.83;;
19406;SDS011;9839;53.364;-1.204;2024-01-30T01:17:30;33.47;;;13.07;;
19406;SDS011;9839;53.364;-1.204;2024-01-30T01:19:56;40.90;;;13.13;;
19406;SDS011;9839;53.364;-1.204;2024-01-30T01:22:22;32.63;;;12.67;;
19406;SDS011;9839;53.364;-1.204;2024-01-30T01:24:47;32.30;;;14.37;;
19406;SDS011;9839;53.364;-1.204;2024-01-30T01:27:13;32.53;;;13.37;;
19406;SDS011;9839;53.364;-1.204;2024-01-30T01:29:38;40.07;;;13.20;;
19406;SDS011;9839;53.364;-1.204;2024-01-30T01:32:04;28.23;;;12.07;;
19406;SDS011;9839;53.364;-1.204;2024-01-30T01:34:29;35.07;;;12.47;;
19406;SDS011;9839;53.364;-1.204;2024-01-30T01:36:55;42.73;;;13.07;;
19406;SDS011;9839;53.364;-1.204;2024-01-30T01:39:20;28.73;;;12.77;;
19406;SDS011;9839;53.364;-1.204;2024-01-30T01:41:46;37.57;;;12.87;;
19406;SDS011;9839;53.364;-1.204;2024-01-30T01:44:12;32.73;;;12.43;;
19406;SDS011;9839;53.364;-1.204;2024-01-30T01:46:38;28.90;;;12.70;;
19406;SDS011;9839;53.364;-1.204;2024-01-30T01:49:04;32.73;;;13.03;;
19406;SDS011;9839;53.364;-1.204;2024-01-30T01:51:31;41.50;;;13.30;;
19406;SDS011;9839;53.364;-1.204;2024-01-30T01:53:57;35.33;;;13.73;;
19406;SDS011;9839;53.364;-1.204;2024-01-30T01:56:23;34.97;;;12.20;;
19406;SDS011;9839;53.364;-1.204;2024-01-30T01:58:48;36.80;;;12.37;;
19406;SDS011;9839;53.364;-1.204;2024-01-30T02:01:14;36.93;;;12.37;;
19406;SDS011;9839;53.364;-1.204;2024-01-30T02:03:41;39.60;;;13.63;;
19406;SDS011;9839;53.364;-1.204;2024-01-30T02:06:07;28.20;;;11.93;;
19406;SDS011;9839;53.364;-1.204;2024-01-30T02:08:32;33.80;;;12.43;;
19406;SDS011;9839;53.364;-1.204;2024-01-30T02:10:58;35.00;;;12.27;;
19406;SDS011;9839;53.364;-1.204;2024-01-30T02:13:24;31.90;;;12.90;;
19406;SDS011;9839;53.364;-1.204;2024-01-30T02:15:50;40.97;;;12.47;;
19406;SDS011;9839;53.364;-1.204;2024-01-30T02:18:16;32.13;;;11.60;;
19406;SDS011;9839;53.364;-1.204;2024-01-30T02:20:41;36.50;;;10.77;;
19406;SDS011;9839;53.364;-1.204;2024-01-30T02:23:07;28.53;;;11.33;;
19406;SDS011;9839;53.364;-1.204;2024-01-30T02:25:33;28.33;;;11.57;;
19406;SDS011;9839;53.364;-1.204;2024-01-30T02:28:00;28.40;;;12.53;;
19406;SDS011;9839;53.364;-1.204;2024-01-30T02:30:26;29.53;;;11.67;;
19406;SDS011;9839;53.364;-1.204;2024-01-30T02:32:51;26.92;;;10.48;;
19406;SDS011;9839;53.364;-1.204;2024-01-30T02:35:17;26.03;;;10.60;;
19406;SDS011;9839;53.364;-1.204;2024-01-30T02:37:42;32.80;;;11.33;;
19406;SDS011;9839;53.364;-1.204;2024-01-30T02:40:07;28.60;;;11.90;;
19406;SDS011;9839;53.364;-1.204;2024-01-30T02:42:33;25.73;;;10.67;;
19406;SDS011;9839;53.364;-1.204;2024-01-30T02:44:58;24.47;;;10.87;;
19406;SDS011;9839;53.364;-1.204;2024-01-30T02:47:23;27.13;;;9.83;;
19406;SDS011;9839;53.364;-1.204;2024-01-30T02:49:49;24.07;;;10.00;;
19406;SDS011;9839;53.364;-1.204;2024-01-30T02:52:14;29.40;;;9.93;;
19406;SDS011;9839;53.364;-1.204;2024-01-30T02:54:39;26.17;;;9.70;;
19406;SDS011;9839;53.364;-1.204;2024-01-30T02:57:05;25.07;;;9.80;;
19406;SDS011;9839;53.364;-1.204;2024-01-30T02:59:30;20.30;;;8.93;;
19406;SDS011;9839;53.364;-1.204;2024-01-30T03:01:58;22.10;;;9.80;;
19406;SDS011;9839;53.364;-1.204;2024-01-30T03:04:24;26.50;;;9.67;;
19406;SDS011;9839;53.364;-1.204;2024-01-30T03:06:49;26.73;;;8.97;;
19406;SDS011;9839;53.364;-1.204;2024-01-30T03:09:17;29.33;;;10.87;;
19406;SDS011;9839;53.364;-1.204;2024-01-30T03:11:43;16.93;;;7.27;;
19406;SDS011;9839;53.364;-1.204;2024-01-30T03:14:08;8.63;;;3.93;;
19406;SDS011;9839;53.364;-1.204;2024-01-30T03:16:36;5.43;;;3.20;;
19406;SDS011;9839;53.364;-1.204;2024-01-30T03:19:02;3.70;;;2.27;;
19406;SDS011;9839;53.364;-1.204;2024-01-30T03:21:28;3.40;;;2.10;;
19406;SDS011;9839;53.364;-1.204;2024-01-30T03:23:54;8.50;;;4.10;;
19406;SDS011;9839;53.364;-1.204;2024-01-30T03:26:19;17.77;;;7.80;;
19406;SDS011;9839;53.364;-1.204;2024-01-30T03:28:44;33.97;;;9.60;;
19406;SDS011;9839;53.364;-1.204;2024-01-30T03:31:10;28.20;;;10.50;;
19406;SDS011;9839;53.364;-1.204;2024-01-30T03:33:36;24.03;;;10.17;;
19406;SDS011;9839;53.364;-1.204;2024-01-30T03:36:04;25.90;;;9.87;;
19406;SDS011;9839;53.364;-1.204;2024-01-30T03:38:30;24.50;;;10.53;;
19406;SDS011;9839;53.364;-1.204;2024-01-30T03:40:57;20.83;;;9.03;;
19406;SDS011;9839;53.364;-1.204;2024-01-30T03:43:23;17.50;;;8.30;;
19406;SDS011;9839;53.364;-1.204;2024-01-30T03:45:48;20.77;;;8.20;;
19406;SDS011;9839;53.364;-1.204;2024-01-30T03:48:14;16.03;;;7.67;;
19406;SDS011;9839;53.364;-1.204;2024-01-30T03:50:39;15.13;;;7.23;;
19406;SDS011;9839;53.364;-1.204;2024-01-30T03:53:04;15.87;;;7.87;;
19406;SDS011;9839;53.364;-1.204;2024-01-30T03:55:30;15.40;;;7.20;;
19406;SDS011;9839;53.364;-1.204;2024-01-30T03:57:55;13.80;;;7.30;;
19406;SDS011;9839;53.364;-1.204;2024-01-30T04:00:20;18.43;;;7.80;;
19406;SDS011;9839;53.364;-1.204;2024-01-30T04:02:46;16.20;;;7.80;;
19406;SDS011;9839;53.364;-1.204;2024-01-30T04:05:11;14.63;;;7.13;;
19406;SDS011;9839;53.364;-1.204;2024-01-30T04:07:37;16.03;;;7.33;;
19406;SDS011;9839;53.364;-1.204;2024-01-30T04:10:02;16.33;;;7.30;;
19406;SDS011;9839;53.364;-1.204;2024-01-30T04:12:30;14.43;;;7.27;;
19406;SDS011;9839;53.364;-1.204;2024-01-30T04:14:56;16.43;;;7.27;;
19406;SDS011;9839;53.364;-1.204;2024-01-30T04:17:21;14.80;;;6.97;;
19406;SDS011;9839;53.364;-1.204;2024-01-30T04:19:47;15.33;;;7.23;;
19406;SDS011;9839;53.364;-1.204;2024-01-30T04:22:12;13.17;;;6.07;;
19406;SDS011;9839;53.364;-1.204;2024-01-30T04:24:37;13.40;;;6.37;;
19406;SDS011;9839;53.364;-1.204;2024-01-30T04:27:03;14.13;;;6.67;;
19406;SDS011;9839;53.364;-1.204;2024-01-30T04:29:28;16.43;;;5.90;;
19406;SDS011;9839;53.364;-1.204;2024-01-30T04:31:54;12.57;;;5.90;;
19406;SDS011;9839;53.364;-1.204;2024-01-30T04:34:19;12.53;;;5.60;;
19406;SDS011;9839;53.364;-1.204;2024-01-30T04:36:44;13.00;;;5.40;;
19406;SDS011;9839;53.364;-1.204;2024-01-30T04:39:11;13.27;;;6.10;;
19406;SDS011;9839;53.364;-1.204;2024-01-30T04:41:36;12.70;;;5.83;;
19406;SDS011;9839;53.364;-1.204;2024-01-30T04:44:01;10.00;;;5.67;;
19406;SDS011;9839;53.364;-1.204;2024-01-30T04:46:27;10.80;;;4.90;;
19406;SDS011;9839;53.364;-1.204;2024-01-30T04:48:53;13.23;;;5.70;;
19406;SDS011;9839;53.364;-1.204;2024-01-30T04:51:18;10.60;;;5.90;;
19406;SDS011;9839;53.364;-1.204;2024-01-30T04:53:43;12.57;;;5.83;;
19406;SDS011;9839;53.364;-1.204;2024-01-30T04:56:09;13.37;;;6.10;;
19406;SDS011;9839;53.364;-1.204;2024-01-30T04:58:34;13.47;;;6.47;;
19406;SDS011;9839;53.364;-1.204;2024-01-30T05:01:00;12.40;;;5.73;;
19406;SDS011;9839;53.364;-1.204;2024-01-30T05:03:25;9.97;;;5.30;;
19406;SDS011;9839;53.364;-1.204;2024-01-30T05:05:51;9.70;;;5.20;;
19406;SDS011;9839;53.364;-1.204;2024-01-30T05:08:16;8.57;;;4.57;;
19406;SDS011;9839;53.364;-1.204;2024-01-30T05:10:42;9.80;;;5.07;;
19406;SDS011;9839;53.364;-1.204;2024-01-30T05:13:07;10.93;;;4.57;;
19406;SDS011;9839;53.364;-1.204;2024-01-30T05:15:32;9.10;;;5.03;;
19406;SDS011;9839;53.364;-1.204;2024-01-30T05:17:58;9.63;;;3.93;;
19406;SDS011;9839;53.364;-1.204;2024-01-30T05:20:23;8.43;;;4.10;;
19406;SDS011;9839;53.364;-1.204;2024-01-30T05:22:48;5.40;;;3.03;;
19406;SDS011;9839;53.364;-1.204;2024-01-30T05:25:14;2.97;;;1.80;;
19406;SDS011;9839;53.364;-1.204;2024-01-30T05:27:39;3.80;;;2.03;;
19406;SDS011;9839;53.364;-1.204;2024-01-30T05:30:05;4.03;;;2.30;;
19406;SDS011;9839;53.364;-1.204;2024-01-30T05:32:31;2.43;;;1.70;;
19406;SDS011;9839;53.364;-1.204;2024-01-30T05:34:57;4.10;;;2.10;;
19406;SDS011;9839;53.364;-1.204;2024-01-30T05:37:22;3.67;;;1.67;;
19406;SDS011;9839;53.364;-1.204;2024-01-30T05:39:47;4.10;;;1.73;;
19406;SDS011;9839;53.364;-1.204;2024-01-30T05:42:13;3.57;;;1.73;;
19406;SDS011;9839;53.364;-1.204;2024-01-30T05:44:39;3.00;;;1.80;;
19406;SDS011;9839;53.364;-1.204;2024-01-30T05:47:05;4.57;;;2.00;;
19406;SDS011;9839;53.364;-1.204;2024-01-30T05:49:31;3.30;;;2.07;;
19406;SDS011;9839;53.364;-1.204;2024-01-30T05:51:56;3.13;;;1.93;;
19406;SDS011;9839;53.364;-1.204;2024-01-30T05:54:21;2.83;;;2.07;;
19406;SDS011;9839;53.364;-1.204;2024-01-30T05:56:47;2.87;;;1.70;;
19406;SDS011;9839;53.364;-1.204;2024-01-30T05:59:12;2.57;;;1.40;;
19406;SDS011;9839;53.364;-1.204;2024-01-30T06:01:37;2.67;;;1.60;;
19406;SDS011;9839;53.364;-1.204;2024-01-30T06:04:03;4.27;;;1.77;;
19406;SDS011;9839;53.364;-1.204;2024-01-30T06:06:28;2.40;;;1.40;;
19406;SDS011;9839;53.364;-1.204;2024-01-30T06:08:54;2.63;;;1.60;;
19406;SDS011;9839;53.364;-1.204;2024-01-30T06:11:21;3.03;;;1.70;;
19406;SDS011;9839;53.364;-1.204;2024-01-30T06:13:46;3.20;;;2.23;;
19406;SDS011;9839;53.364;-1.204;2024-01-30T06:16:12;2.83;;;1.87;;
19406;SDS011;9839;53.364;-1.204;2024-01-30T06:18:37;2.30;;;1.50;;
19406;SDS011;9839;53.364;-1.204;2024-01-30T06:21:04;2.57;;;1.90;;
19406;SDS011;9839;53.364;-1.204;2024-01-30T06:23:29;3.13;;;1.67;;
19406;SDS011;9839;53.364;-1.204;2024-01-30T06:25:55;3.10;;;1.80;;
19406;SDS011;9839;53.364;-1.204;2024-01-30T06:28:20;1.87;;;1.40;;
19406;SDS011;9839;53.364;-1.204;2024-01-30T06:30:45;2.50;;;1.90;;
19406;SDS011;9839;53.364;-1.204;2024-01-30T06:33:14;2.07;;;1.63;;
19406;SDS011;9839;53.364;-1.204;2024-01-30T06:35:40;2.80;;;1.50;;
19406;SDS011;9839;53.364;-1.204;2024-01-30T06:38:05;3.20;;;1.57;;
19406;SDS011;9839;53.364;-1.204;2024-01-30T06:40:31;1.97;;;1.20;;
19406;SDS011;9839;53.364;-1.204;2024-01-30T06:42:56;1.37;;;1.17;;
19406;SDS011;9839;53.364;-1.204;2024-01-30T06:45:22;1.73;;;1.37;;
19406;SDS011;9839;53.364;-1.204;2024-01-30T06:47:47;2.00;;;1.43;;
19406;SDS011;9839;53.364;-1.204;2024-01-30T06:50:12;2.80;;;1.50;;
19406;SDS011;9839;53.364;-1.204;2024-01-30T06:52:38;1.67;;;1.40;;
19406;SDS011;9839;53.364;-1.204;2024-01-30T06:55:03;2.10;;;1.30;;
19406;SDS011;9839;53.364;-1.204;2024-01-30T06:57:29;4.17;;;1.90;;
19406;SDS011;9839;53.364;-1.204;2024-01-30T06:59:55;2.83;;;1.90;;
19406;SDS011;9839;53.364;-1.204;2024-01-30T07:02:21;1.73;;;1.40;;
19406;SDS011;9839;53.364;-1.204;2024-01-30T07:04:46;2.33;;;1.60;;
19406;SDS011;9839;53.364;-1.204;2024-01-30T07:07:12;2.57;;;1.83;;
19406;SDS011;9839;53.364;-1.204;2024-01-30T07:09:38;2.43;;;1.50;;
19406;SDS011;9839;53.364;-1.204;2024-01-30T07:12:04;1.60;;;1.37;;
19406;SDS011;9839;53.364;-1.204;2024-01-30T07:14:29;2.47;;;1.60;;
19406;SDS011;9839;53.364;-1.204;2024-01-30T07:16:55;2.10;;;1.73;;
19406;SDS011;9839;53.364;-1.204;2024-01-30T07:19:20;2.73;;;1.70;;
19406;SDS011;9839;53.364;-1.204;2024-01-30T07:21:45;2.97;;;1.90;;
19406;SDS011;9839;53.364;-1.204;2024-01-30T07:24:11;3.17;;;1.83;;
19406;SDS011;9839;53.364;-1.204;2024-01-30T07:26:37;3.90;;;1.73;;
19406;SDS011;9839;53.364;-1.204;2024-01-30T07:29:02;2.77;;;1.97;;
19406;SDS011;9839;53.364;-1.204;2024-01-30T07:31:28;4.33;;;1.70;;
19406;SDS011;9839;53.364;-1.204;2024-01-30T07:33:54;3.50;;;2.30;;
19406;SDS011;9839;53.364;-1.204;2024-01-30T07:36:19;2.80;;;1.77;;
19406;SDS011;9839;53.364;-1.204;2024-01-30T07:38:45;3.53;;;2.10;;
19406;SDS011;9839;53.364;-1.204;2024-01-30T07:41:10;3.83;;;2.10;;
19406;SDS011;9839;53.364;-1.204;2024-01-30T07:43:37;3.40;;;2.00;;
19406;SDS011;9839;53.364;-1.204;2024-01-30T07:46:03;3.40;;;1.70;;
19406;SDS011;9839;53.364;-1.204;2024-01-30T07:48:29;3.90;;;2.07;;
19406;SDS011;9839;53.364;-1.204;2024-01-30T07:50:54;2.50;;;1.80;;
19406;SDS011;9839;53.364;-1.204;2024-01-30T07:53:19;2.77;;;2.10;;
19406;SDS011;9839;53.364;-1.204;2024-01-30T07:55:45;3.13;;;2.00;;
19406;SDS011;9839;53.364;-1.204;2024-01-30T07:58:11;8.60;;;1.80;;
19406;SDS011;9839;53.364;-1.204;2024-01-30T08:00:37;3.47;;;2.13;;
19406;SDS011;9839;53.364;-1.204;2024-01-30T08:03:02;2.50;;;1.70;;
19406;SDS011;9839;53.364;-1.204;2024-01-30T08:05:28;1.90;;;1.50;;
19406;SDS011;9839;53.364;-1.204;2024-01-30T08:07:54;2.97;;;1.60;;
19406;SDS011;9839;53.364;-1.204;2024-01-30T08:10:19;2.60;;;1.73;;
19406;SDS011;9839;53.364;-1.204;2024-01-30T08:12:45;2.80;;;1.70;;
19406;SDS011;9839;53.364;-1.204;2024-01-30T08:15:11;2.60;;;1.70;;
19406;SDS011;9839;53.364;-1.204;2024-01-30T08:17:38;1.87;;;1.20;;
19406;SDS011;9839;53.364;-1.204;2024-01-30T08:20:03;1.90;;;1.23;;
19406;SDS011;9839;53.364;-1.204;2024-01-30T08:22:29;1.70;;;0.90;;
19406;SDS011;9839;53.364;-1.204;2024-01-30T08:24:55;0.83;;;0.63;;
19406;SDS011;9839;53.364;-1.204;2024-01-30T08:27:20;0.90;;;0.70;;
19406;SDS011;9839;53.364;-1.204;2024-01-30T08:29:46;1.80;;;0.90;;
19406;SDS011;9839;53.364;-1.204;2024-01-30T08:32:11;1.03;;;0.90;;
19406;SDS011;9839;53.364;-1.204;2024-01-30T08:34:36;2.17;;;0.80;;
19406;SDS011;9839;53.364;-1.204;2024-01-30T08:37:02;2.70;;;0.80;;
19406;SDS011;9839;53.364;-1.204;2024-01-30T08:39:28;1.10;;;0.80;;
19406;SDS011;9839;53.364;-1.204;2024-01-30T08:41:53;0.53;;;0.53;;
19406;SDS011;9839;53.364;-1.204;2024-01-30T08:44:19;0.70;;;0.57;;
19406;SDS011;9839;53.364;-1.204;2024-01-30T08:46:44;0.93;;;0.70;;
19406;SDS011;9839;53.364;-1.204;2024-01-30T08:49:10;0.80;;;0.50;;
19406;SDS011;9839;53.364;-1.204;2024-01-30T08:51:38;1.13;;;0.87;;
19406;SDS011;9839;53.364;-1.204;2024-01-30T08:54:04;1.53;;;0.70;;
19406;SDS011;9839;53.364;-1.204;2024-01-30T08:56:29;0.40;;;0.40;;
19406;SDS011;9839;53.364;-1.204;2024-01-30T08:58:54;0.83;;;0.60;;
19406;SDS011;9839;53.364;-1.204;2024-01-30T09:11:52;1.73;;;0.40;;
19406;SDS011;9839;53.364;-1.204;2024-01-30T09:14:17;0.40;;;0.40;;
19406;SDS011;9839;53.364;-1.204;2024-01-30T09:16:43;0.80;;;0.80;;
19406;SDS011;9839;53.364;-1.204;2024-01-30T09:19:08;0.50;;;0.50;;
19406;SDS011;9839;53.364;-1.204;2024-01-30T09:21:34;0.50;;;0.40;;
19406;SDS011;9839;53.364;-1.204;2024-01-30T09:24:02;0.87;;;0.50;;
19406;SDS011;9839;53.364;-1.204;2024-01-30T09:26:32;0.40;;;0.40;;
19406;SDS011;9839;53.364;-1.204;2024-01-30T09:28:57;0.50;;;0.30;;
19406;SDS011;9839;53.364;-1.204;2024-01-30T09:31:22;2.00;;;0.60;;
19406;SDS011;9839;53.364;-1.204;2024-01-30T09:33:48;1.13;;;0.50;;
19406;SDS011;9839;53.364;-1.204;2024-01-30T09:36:14;0.40;;;0.30;;
19406;SDS011;9839;53.364;-1.204;2024-01-30T09:38:40;0.60;;;0.50;;
19406;SDS011;9839;53.364;-1.204;2024-01-30T09:41:07;0.90;;;0.57;;
19406;SDS011;9839;53.364;-1.204;2024-01-30T09:43:35;1.40;;;0.63;;
19406;SDS011;9839;53.364;-1.204;2024-01-30T09:46:02;0.97;;;0.60;;
19406;SDS011;9839;53.364;-1.204;2024-01-30T09:48:29;2.07;;;1.00;;
19406;SDS011;9839;53.364;-1.204;2024-01-30T09:50:56;2.43;;;0.77;;
19406;SDS011;9839;53.364;-1.204;2024-01-30T09:53:22;4.90;;;2.17;;
19406;SDS011;9839;53.364;-1.204;2024-01-30T09:55:47;2.90;;;1.20;;
19406;SDS011;9839;53.364;-1.204;2024-01-30T09:58:15;2.33;;;1.43;;
19406;SDS011;9839;53.364;-1.204;2024-01-30T10:00:41;2.23;;;1.23;;
19406;SDS011;9839;53.364;-1.204;2024-01-30T10:03:06;1.50;;;1.37;;
19406;SDS011;9839;53.364;-1.204;2024-01-30T10:05:31;1.87;;;1.03;;
19406;SDS011;9839;53.364;-1.204;2024-01-30T10:08:00;1.17;;;0.83;;
19406;SDS011;9839;53.364;-1.204;2024-01-30T10:10:25;0.80;;;0.80;;
19406;SDS011;9839;53.364;-1.204;2024-01-30T10:12:51;0.93;;;0.70;;
19406;SDS011;9839;53.364;-1.204;2024-01-30T10:15:17;1.23;;;0.60;;
19406;SDS011;9839;53.364;-1.204;2024-01-30T10:17:44;2.40;;;0.70;;
19406;SDS011;9839;53.364;-1.204;2024-01-30T10:20:10;1.93;;;0.30;;
19406;SDS011;9839;53.364;-1.204;2024-01-30T10:22:35;0.50;;;0.30;;
19406;SDS011;9839;53.364;-1.204;2024-01-30T10:25:01;0.63;;;0.40;;
19406;SDS011;9839;53.364;-1.204;2024-01-30T10:27:26;0.30;;;0.20;;
19406;SDS011;9839;53.364;-1.204;2024-01-30T10:29:52;0.50;;;0.27;;
19406;SDS011;9839;53.364;-1.204;2024-01-30T10:32:17;1.80;;;0.20;;
19406;SDS011;9839;53.364;-1.204;2024-01-30T10:34:43;1.00;;;0.87;;
19406;SDS011;9839;53.364;-1.204;2024-01-30T10:37:11;1.70;;;0.67;;
19406;SDS011;9839;53.364;-1.204;2024-01-30T10:39:41;0.93;;;0.40;;
19406;SDS011;9839;53.364;-1.204;2024-01-30T10:42:11;0.37;;;0.37;;
19406;SDS011;9839;53.364;-1.204;2024-01-30T10:47:26;0.40;;;0.30;;
19406;SDS011;9839;53.364;-1.204;2024-01-30T10:49:53;0.70;;;0.30;;
19406;SDS011;9839;53.364;-1.204;2024-01-30T10:52:20;0.10;;;0.10;;
19406;SDS011;9839;53.364;-1.204;2024-01-30T10:54:45;0.57;;;0.30;;
19406;SDS011;9839;53.364;-1.204;2024-01-30T10:57:12;1.27;;;0.40;;
19406;SDS011;9839;53.364;-1.204;2024-01-30T10:59:37;0.40;;;0.33;;
19406;SDS011;9839;53.364;-1.204;2024-01-30T11:02:03;0.17;;;0.17;;
19406;SDS011;9839;53.364;-1.204;2024-01-30T11:04:36;0.30;;;0.30;;
19406;SDS011;9839;53.364;-1.204;2024-01-30T11:07:02;0.73;;;0.30;;
19406;SDS011;9839;53.364;-1.204;2024-01-30T11:09:29;0.43;;;0.40;;
19406;SDS011;9839;53.364;-1.204;2024-01-30T11:11:58;0.70;;;0.40;;
19406;SDS011;9839;53.364;-1.204;2024-01-30T11:14:25;0.40;;;0.40;;
19406;SDS011;9839;53.364;-1.204;2024-01-30T11:16:51;0.60;;;0.50;;
19406;SDS011;9839;53.364;-1.204;2024-01-30T11:19:26;0.50;;;0.40;;
19406;SDS011;9839;53.364;-1.204;2024-01-30T11:21:54;2.53;;;0.73;;
19406;SDS011;9839;53.364;-1.204;2024-01-30T11:24:21;2.10;;;0.60;;
19406;SDS011;9839;53.364;-1.204;2024-01-30T11:26:55;0.80;;;0.33;;
19406;SDS011;9839;53.364;-1.204;2024-01-30T11:29:24;1.03;;;0.60;;
19406;SDS011;9839;53.364;-1.204;2024-01-30T11:31:53;1.10;;;0.40;;
19406;SDS011;9839;53.364;-1.204;2024-01-30T11:34:20;0.67;;;0.40;;
19406;SDS011;9839;53.364;-1.204;2024-01-30T11:36:48;0.40;;;0.40;;
19406;SDS011;9839;53.364;-1.204;2024-01-30T11:39:18;2.67;;;0.40;;
19406;SDS011;9839;53.364;-1.204;2024-01-30T11:41:45;0.60;;;0.40;;
19406;SDS011;9839;53.364;-1.204;2024-01-30T11:44:11;0.20;;;0.20;;
19406;SDS011;9839;53.364;-1.204;2024-01-30T11:46:36;0.70;;;0.40;;
19406;SDS011;9839;53.364;-1.204;2024-01-30T11:49:01;0.47;;;0.27;;
19406;SDS011;9839;53.364;-1.204;2024-01-30T11:51:27;0.20;;;0.20;;
19406;SDS011;9839;53.364;-1.204;2024-01-30T11:53:52;0.30;;;0.20;;
19406;SDS011;9839;53.364;-1.204;2024-01-30T11:56:18;1.63;;;0.60;;
19406;SDS011;9839;53.364;-1.204;2024-01-30T11:58:43;0.30;;;0.30;;
19406;SDS011;9839;53.364;-1.204;2024-01-30T12:01:09;0.73;;;0.43;;
19406;SDS011;9839;53.364;-1.204;2024-01-30T12:03:35;0.47;;;0.37;;
19406;SDS011;9839;53.364;-1.204;2024-01-30T12:06:02;0.50;;;0.40;;
19406;SDS011;9839;53.364;-1.204;2024-01-30T12:08:28;3.37;;;0.70;;
19406;SDS011;9839;53.364;-1.204;2024-01-30T12:10:56;3.70;;;0.70;;
19406;SDS011;9839;53.364;-1.204;2024-01-30T12:13:23;2.33;;;0.73;;
19406;SDS011;9839;53.364;-1.204;2024-01-30T12:15:49;2.30;;;0.80;;
19406;SDS011;9839;53.364;-1.204;2024-01-30T12:18:18;0.83;;;0.70;;
19406;SDS011;9839;53.364;-1.204;2024-01-30T12:20:43;1.83;;;0.77;;
19406;SDS011;9839;53.364;-1.204;2024-01-30T12:23:09;2.00;;;1.10;;
19406;SDS011;9839;53.364;-1.204;2024-01-30T12:25:37;1.90;;;0.90;;
19406;SDS011;9839;53.364;-1.204;2024-01-30T12:28:02;2.50;;;1.20;;
19406;SDS011;9839;53.364;-1.204;2024-01-30T12:30:28;1.77;;;0.77;;
19406;SDS011;9839;53.364;-1.204;2024-01-30T12:32:54;0.93;;;0.67;;
19406;SDS011;9839;53.364;-1.204;2024-01-30T12:35:20;0.80;;;0.50;;
19406;SDS011;9839;53.364;-1.204;2024-01-30T12:37:46;2.07;;;0.50;;
19406;SDS011;9839;53.364;-1.204;2024-01-30T12:40:16;4.37;;;0.50;;
19406;SDS011;9839;53.364;-1.204;2024-01-30T12:42:42;3.90;;;0.60;;
19406;SDS011;9839;53.364;-1.204;2024-01-30T12:45:07;3.63;;;0.50;;
19406;SDS011;9839;53.364;-1.204;2024-01-30T12:47:33;2.60;;;0.60;;
19406;SDS011;9839;53.364;-1.204;2024-01-30T12:49:58;3.17;;;0.57;;
19406;SDS011;9839;53.364;-1.204;2024-01-30T12:52:24;1.07;;;0.60;;
19406;SDS011;9839;53.364;-1.204;2024-01-30T12:54:49;1.80;;;0.57;;
19406;SDS011;9839;53.364;-1.204;2024-01-30T12:57:15;0.60;;;0.60;;
19406;SDS011;9839;53.364;-1.204;2024-01-30T12:59:42;1.87;;;0.70;;
19406;SDS011;9839;53.364;-1.204;2024-01-30T13:02:07;3.33;;;0.80;;
19406;SDS011;9839;53.364;-1.204;2024-01-30T13:04:33;0.80;;;0.60;;
19406;SDS011;9839;53.364;-1.204;2024-01-30T13:06:59;1.13;;;0.70;;
19406;SDS011;9839;53.364;-1.204;2024-01-30T13:09:25;2.70;;;0.73;;
19406;SDS011;9839;53.364;-1.204;2024-01-30T13:11:51;0.90;;;0.47;;
19406;SDS011;9839;53.364;-1.204;2024-01-30T13:14:17;1.47;;;0.67;;
19406;SDS011;9839;53.364;-1.204;2024-01-30T13:16:42;1.33;;;0.87;;
19406;SDS011;9839;53.364;-1.204;2024-01-30T13:19:08;0.70;;;0.53;;
19406;SDS011;9839;53.364;-1.204;2024-01-30T13:21:33;0.83;;;0.60;;
19406;SDS011;9839;53.364;-1.204;2024-01-30T13:23:59;4.90;;;0.60;;
19406;SDS011;9839;53.364;-1.204;2024-01-30T13:26:24;0.50;;;0.50;;
19406;SDS011;9839;53.364;-1.204;2024-01-30T13:28:50;2.13;;;0.60;;
19406;SDS011;9839;53.364;-1.204;2024-01-30T13:31:15;0.90;;;0.40;;
19406;SDS011;9839;53.364;-1.204;2024-01-30T13:33:41;1.27;;;0.30;;
19406;SDS011;9839;53.364;-1.204;2024-01-30T13:36:07;1.00;;;0.70;;
19406;SDS011;9839;53.364;-1.204;2024-01-30T13:38:33;1.90;;;0.40;;
19406;SDS011;9839;53.364;-1.204;2024-01-30T13:40:59;0.50;;;0.40;;
19406;SDS011;9839;53.364;-1.204;2024-01-30T13:43:24;1.43;;;0.43;;
19406;SDS011;9839;53.364;-1.204;2024-01-30T13:45:49;0.47;;;0.40;;
19406;SDS011;9839;53.364;-1.204;2024-01-30T13:48:15;1.80;;;0.80;;
19406;SDS011;9839;53.364;-1.204;2024-01-30T13:50:40;2.40;;;0.50;;
19406;SDS011;9839;53.364;-1.204;2024-01-30T13:53:05;1.27;;;0.60;;
19406;SDS011;9839;53.364;-1.204;2024-01-30T13:55:31;2.33;;;1.10;;
19406;SDS011;9839;53.364;-1.204;2024-01-30T13:57:56;1.40;;;0.77;;
19406;SDS011;9839;53.364;-1.204;2024-01-30T14:00:22;5.70;;;1.13;;
19406;SDS011;9839;53.364;-1.204;2024-01-30T14:02:48;0.67;;;0.53;;
19406;SDS011;9839;53.364;-1.204;2024-01-30T14:05:13;1.13;;;0.63;;
19406;SDS011;9839;53.364;-1.204;2024-01-30T14:07:39;2.27;;;0.70;;
19406;SDS011;9839;53.364;-1.204;2024-01-30T14:10:05;4.63;;;0.60;;
19406;SDS011;9839;53.364;-1.204;2024-01-30T14:12:31;0.90;;;0.60;;
19406;SDS011;9839;53.364;-1.204;2024-01-30T14:14:57;2.70;;;0.83;;
19406;SDS011;9839;53.364;-1.204;2024-01-30T14:17:22;1.90;;;0.87;;
19406;SDS011;9839;53.364;-1.204;2024-01-30T14:19:47;5.73;;;0.60;;
19406;SDS011;9839;53.364;-1.204;2024-01-30T14:22:13;2.43;;;0.53;;
19406;SDS011;9839;53.364;-1.204;2024-01-30T14:24:38;0.87;;;0.40;;
19406;SDS011;9839;53.364;-1.204;2024-01-30T14:27:03;0.20;;;0.20;;
19406;SDS011;9839;53.364;-1.204;2024-01-30T14:29:29;1.63;;;0.60;;
19406;SDS011;9839;53.364;-1.204;2024-01-30T14:31:54;1.27;;;0.40;;
19406;SDS011;9839;53.364;-1.204;2024-01-30T14:34:20;0.60;;;0.23;;
19406;SDS011;9839;53.364;-1.204;2024-01-30T14:36:46;2.93;;;0.40;;
19406;SDS011;9839;53.364;-1.204;2024-01-30T14:39:11;1.43;;;0.30;;
19406;SDS011;9839;53.364;-1.204;2024-01-30T14:41:36;0.67;;;0.40;;
19406;SDS011;9839;53.364;-1.204;2024-01-30T14:44:02;0.73;;;0.40;;
19406;SDS011;9839;53.364;-1.204;2024-01-30T14:46:28;0.63;;;0.33;;